createdAt,value
2024-05-09T00:10:51.406Z,7.18
2024-05-09T00:33:23.988Z,9.15
2024-05-09T00:55:58.296Z,8.77
2024-05-09T01:18:31.110Z,8.95
2024-05-09T01:41:03.651Z,9.23
2024-05-09T02:03:36.089Z,9.00
2024-05-09T02:26:08.530Z,10.07
2024-05-09T02:48:41.528Z,9.30
2024-05-09T03:11:26.621Z,9.05
2024-05-09T03:33:59.139Z,7.18
2024-05-09T03:56:31.649Z,6.47
2024-05-09T04:19:03.956Z,6.80
2024-05-09T04:41:36.289Z,12.07
2024-05-09T05:04:08.555Z,12.70
2024-05-09T05:26:41.336Z,10.95
2024-05-09T05:49:13.783Z,15.05
2024-05-09T06:11:47.121Z,12.82
2024-05-09T06:34:19.861Z,11.63
2024-05-09T06:56:52.253Z,12.13
2024-05-09T07:19:25.350Z,10.75
2024-05-09T07:41:57.745Z,10.80
2024-05-09T08:04:30.535Z,9.55
2024-05-09T08:27:03.727Z,9.73
2024-05-09T08:49:41.702Z,10.38
2024-05-09T09:12:14.973Z,10.55
2024-05-09T09:34:48.974Z,9.20
2024-05-09T09:57:24.191Z,9.52
2024-05-09T10:20:14.912Z,9.05
2024-05-09T10:42:55.697Z,8.50
2024-05-09T11:05:28.300Z,7.22
2024-05-09T11:28:04.076Z,6.20
2024-05-09T11:50:36.645Z,5.40
2024-05-09T12:13:09.234Z,4.93
2024-05-09T12:35:45.193Z,4.55
2024-05-09T12:58:19.818Z,5.13
2024-05-09T13:20:52.459Z,7.75
2024-05-09T13:43:27.412Z,4.20
2024-05-09T14:06:00.138Z,4.30
2024-05-09T14:28:32.585Z,3.50
2024-05-09T14:51:05.231Z,3.38
2024-05-09T15:13:37.751Z,3.25
2024-05-09T15:36:10.382Z,4.00
2024-05-09T15:58:44.394Z,4.35
2024-05-09T16:21:16.761Z,4.50
2024-05-09T16:43:49.891Z,6.30
2024-05-09T17:06:22.284Z,5.28
2024-05-09T17:28:54.622Z,5.63
2024-05-09T17:51:27.454Z,5.53
2024-05-09T18:13:59.687Z,9.80
2024-05-09T18:36:31.896Z,6.15
2024-05-09T18:59:03.936Z,6.43
2024-05-09T19:21:36.557Z,6.28
2024-05-09T19:44:09.321Z,7.25
2024-05-09T20:06:41.666Z,6.85
2024-05-09T20:29:13.773Z,7.05
2024-05-09T20:51:45.697Z,7.45
2024-05-09T21:14:17.802Z,7.20
2024-05-09T21:36:49.727Z,7.78
2024-05-09T21:59:21.618Z,6.55
2024-05-09T22:21:55.406Z,7.28
2024-05-09T22:44:27.716Z,7.95
2024-05-09T23:06:59.666Z,8.15
2024-05-09T23:29:31.696Z,8.32
2024-05-09T23:52:03.983Z,8.50
